createdAt,value
2022-10-17T00:01:42.944Z,3.53
2022-10-17T00:04:10.361Z,3.45
2022-10-17T00:06:37.228Z,3.33
2022-10-17T00:09:04.161Z,3.78
2022-10-17T00:11:30.806Z,3.42
2022-10-17T00:13:57.530Z,3.97
2022-10-17T00:16:34.197Z,2.95
2022-10-17T00:19:00.759Z,3.10
2022-10-17T00:21:27.400Z,2.92
2022-10-17T00:23:54.437Z,3.35
2022-10-17T00:26:21.739Z,3.40
2022-10-17T00:28:50.114Z,3.95
2022-10-17T00:31:18.421Z,3.08
2022-10-17T00:33:45.899Z,4.07
2022-10-17T00:36:15.720Z,3.65
2022-10-17T00:38:44.204Z,3.60
2022-10-17T00:41:12.751Z,3.47
2022-10-17T00:44:26.809Z,3.92
2022-10-17T00:46:53.824Z,3.67
2022-10-17T00:49:21.421Z,4.10
2022-10-17T00:51:54.118Z,4.07
2022-10-17T00:54:25.059Z,3.88
2022-10-17T00:56:52.664Z,3.45
2022-10-17T00:59:22.012Z,3.95
2022-10-17T01:02:00.240Z,4.40
2022-10-17T01:04:26.884Z,3.65
2022-10-17T01:06:53.451Z,3.60
2022-10-17T01:09:20.146Z,4.38
2022-10-17T01:11:52.856Z,4.00
2022-10-17T01:14:41.440Z,3.45
2022-10-17T01:17:19.087Z,4.07
2022-10-17T01:20:06.814Z,3.40
2022-10-17T01:23:10.300Z,3.63
2022-10-17T01:26:09.219Z,4.10
2022-10-17T01:29:13.102Z,3.80
2022-10-17T01:31:50.003Z,4.03
2022-10-17T01:34:28.384Z,3.67
2022-10-17T01:37:00.833Z,3.63
2022-10-17T01:39:47.775Z,4.03
2022-10-17T01:42:39.316Z,4.00
2022-10-17T01:45:08.854Z,4.10
2022-10-17T01:47:35.449Z,3.97
2022-10-17T01:50:20.276Z,4.55
2022-10-17T01:52:53.286Z,4.45
2022-10-17T01:55:26.193Z,4.28
2022-10-17T01:57:58.532Z,4.20
2022-10-17T02:00:27.748Z,3.63
2022-10-17T02:02:59.284Z,3.33
2022-10-17T02:05:32.360Z,4.13
2022-10-17T02:07:58.959Z,3.70
2022-10-17T02:10:34.647Z,3.85
2022-10-17T02:13:09.886Z,3.83
2022-10-17T02:15:59.988Z,4.00
2022-10-17T02:18:47.116Z,4.10
2022-10-17T02:21:33.802Z,4.00
2022-10-17T02:24:15.649Z,3.70
2022-10-17T02:26:53.028Z,4.78
2022-10-17T02:29:24.204Z,4.63
2022-10-17T02:31:56.130Z,3.70
2022-10-17T02:34:41.406Z,4.38
2022-10-17T02:37:10.387Z,3.90
2022-10-17T02:39:39.987Z,4.22
2022-10-17T02:42:12.646Z,4.17
2022-10-17T02:44:43.333Z,3.47
2022-10-17T02:47:36.052Z,3.60
2022-10-17T02:50:04.064Z,4.55
2022-10-17T02:52:55.501Z,4.07
2022-10-17T02:55:31.347Z,4.00
2022-10-17T02:58:06.750Z,4.80
2022-10-17T03:00:35.214Z,5.55
2022-10-17T03:03:01.735Z,5.85
2022-10-17T03:05:29.623Z,4.50
2022-10-17T03:07:57.221Z,5.03
2022-10-17T03:10:23.936Z,3.95
2022-10-17T03:12:50.694Z,4.63
2022-10-17T03:15:17.440Z,3.83
2022-10-17T03:20:11.907Z,3.80
2022-10-17T03:22:38.453Z,4.10
2022-10-17T03:25:05.190Z,4.45
2022-10-17T03:27:32.102Z,3.75
2022-10-17T03:29:58.838Z,3.95
2022-10-17T03:32:25.343Z,3.53
2022-10-17T03:34:51.978Z,3.88
2022-10-17T03:37:18.517Z,3.28
2022-10-17T03:39:45.097Z,3.60
2022-10-17T03:42:11.567Z,4.07
2022-10-17T03:44:38.085Z,4.43
2022-10-17T03:47:04.602Z,3.35
2022-10-17T03:49:31.235Z,3.67
2022-10-17T03:51:57.825Z,3.80
2022-10-17T03:54:24.543Z,3.28
2022-10-17T03:56:51.249Z,3.47
2022-10-17T03:59:18.020Z,3.47
2022-10-17T04:01:45.392Z,3.50
2022-10-17T04:04:12.189Z,3.92
2022-10-17T04:06:38.988Z,3.58
2022-10-17T04:09:07.027Z,3.53
2022-10-17T04:11:33.666Z,3.40
2022-10-17T04:14:00.435Z,3.63
2022-10-17T04:16:27.499Z,3.40
2022-10-17T04:18:59.220Z,3.45
2022-10-17T04:21:27.464Z,3.83
2022-10-17T04:23:56.278Z,3.80
2022-10-17T04:26:23.510Z,3.47
2022-10-17T04:28:50.495Z,3.75
2022-10-17T04:31:18.352Z,4.15
2022-10-17T04:33:48.398Z,4.00
2022-10-17T04:36:18.563Z,3.92
2022-10-17T04:38:45.489Z,4.53
2022-10-17T04:41:14.942Z,3.30
2022-10-17T04:43:44.413Z,3.83
2022-10-17T04:46:15.034Z,4.07
2022-10-17T04:48:42.419Z,3.33
2022-10-17T04:51:13.237Z,3.53
2022-10-17T04:53:40.622Z,3.58
2022-10-17T04:56:10.205Z,3.90
2022-10-17T04:58:37.860Z,3.40
2022-10-17T05:01:06.438Z,3.67
2022-10-17T05:03:34.105Z,3.95
2022-10-17T05:06:07.342Z,4.55
2022-10-17T05:08:34.163Z,3.22
2022-10-17T05:11:03.879Z,4.45
2022-10-17T05:13:32.172Z,4.50
2022-10-17T05:16:00.810Z,4.13
2022-10-17T05:18:32.954Z,3.78
2022-10-17T05:20:59.592Z,4.15
2022-10-17T05:23:26.202Z,4.18
2022-10-17T05:25:59.136Z,3.88
2022-10-17T05:28:25.873Z,4.47
2022-10-17T05:30:52.590Z,4.05
2022-10-17T05:33:19.497Z,3.95
2022-10-17T05:35:46.096Z,3.97
2022-10-17T05:38:12.785Z,3.55
2022-10-17T05:40:39.572Z,3.63
2022-10-17T05:43:06.325Z,3.90
2022-10-17T05:45:32.892Z,4.53
2022-10-17T05:48:00.601Z,3.80
2022-10-17T05:50:27.251Z,4.32
2022-10-17T05:52:54.693Z,3.75
2022-10-17T05:55:22.200Z,3.80
2022-10-17T05:57:49.605Z,4.30
2022-10-17T06:00:16.380Z,4.45
2022-10-17T06:02:45.941Z,4.43
2022-10-17T06:05:14.015Z,4.15
2022-10-17T06:07:41.014Z,5.30
2022-10-17T06:10:08.026Z,5.40
2022-10-17T06:12:34.577Z,4.55
2022-10-17T06:15:01.074Z,5.30
2022-10-17T06:17:28.874Z,4.60
2022-10-17T06:19:55.362Z,4.50
2022-10-17T06:22:21.918Z,4.28
2022-10-17T06:24:48.520Z,4.10
2022-10-17T06:27:15.088Z,4.82
2022-10-17T06:29:41.697Z,4.40
2022-10-17T06:32:11.088Z,5.38
2022-10-17T06:34:40.876Z,4.35
2022-10-17T06:37:07.514Z,4.15
2022-10-17T06:39:35.786Z,4.28
2022-10-17T06:42:03.536Z,4.38
2022-10-17T06:44:31.739Z,4.22
2022-10-17T06:46:59.452Z,4.45
2022-10-17T06:49:26.820Z,5.15
2022-10-17T06:51:53.907Z,4.50
2022-10-17T06:54:20.939Z,4.97
2022-10-17T06:56:47.627Z,4.40
2022-10-17T06:59:15.640Z,3.97
2022-10-17T07:01:46.042Z,4.05
2022-10-17T07:04:14.033Z,4.32
2022-10-17T07:06:40.762Z,4.03
2022-10-17T07:09:07.589Z,3.83
2022-10-17T07:11:37.473Z,4.03
2022-10-17T07:14:04.136Z,4.45
2022-10-17T07:16:30.777Z,4.53
2022-10-17T07:18:59.978Z,4.57
2022-10-17T07:21:26.727Z,4.65
2022-10-17T07:23:53.332Z,4.45
2022-10-17T07:26:20.619Z,5.10
2022-10-17T07:28:51.410Z,4.25
2022-10-17T07:31:21.356Z,4.00
2022-10-17T07:33:50.551Z,4.72
2022-10-17T07:36:17.894Z,4.53
2022-10-17T07:38:44.568Z,4.45
2022-10-17T07:41:12.402Z,4.20
2022-10-17T07:43:41.692Z,3.80
2022-10-17T07:46:08.905Z,4.18
2022-10-17T07:48:35.556Z,4.25
2022-10-17T07:51:03.595Z,4.72
2022-10-17T07:53:30.509Z,3.88
2022-10-17T07:55:59.847Z,4.00
2022-10-17T07:58:28.708Z,4.00
2022-10-17T08:00:55.592Z,3.88
2022-10-17T08:03:22.324Z,4.15
2022-10-17T08:05:48.858Z,3.95
2022-10-17T08:08:15.641Z,4.30
2022-10-17T08:10:42.278Z,4.53
2022-10-17T08:13:09.363Z,5.10
2022-10-17T08:15:37.668Z,4.22
2022-10-17T08:18:04.501Z,4.03
2022-10-17T08:20:31.032Z,4.43
2022-10-17T08:22:58.547Z,3.38
2022-10-17T08:25:27.538Z,3.63
2022-10-17T08:27:54.138Z,3.28
2022-10-17T08:30:20.938Z,3.25
2022-10-17T08:32:47.490Z,3.65
2022-10-17T08:35:14.780Z,3.95
2022-10-17T08:37:42.976Z,4.28
2022-10-17T08:40:22.758Z,3.92
2022-10-17T08:43:01.581Z,3.58
2022-10-17T08:45:52.299Z,3.55
2022-10-17T08:48:23.413Z,3.03
2022-10-17T08:51:10.580Z,3.38
2022-10-17T08:53:43.527Z,2.70
2022-10-17T08:56:44.023Z,3.38
2022-10-17T08:59:27.383Z,3.03
2022-10-17T09:02:09.521Z,3.90
2022-10-17T09:04:54.580Z,3.22
2022-10-17T09:07:45.946Z,2.97
2022-10-17T09:10:51.900Z,2.40
2022-10-17T09:13:29.756Z,2.88
2022-10-17T09:16:30.309Z,2.78
2022-10-17T09:19:11.813Z,2.72
2022-10-17T09:22:02.861Z,2.63
2022-10-17T09:24:44.462Z,2.65
2022-10-17T09:27:35.405Z,2.85
2022-10-17T09:30:43.621Z,2.90
2022-10-17T09:33:28.094Z,2.80
2022-10-17T09:36:04.356Z,2.20
2022-10-17T09:38:39.170Z,2.70
2022-10-17T09:41:39.179Z,2.83
2022-10-17T09:44:20.224Z,2.42
2022-10-17T09:47:06.417Z,2.38
2022-10-17T09:49:44.903Z,2.80
2022-10-17T09:52:16.351Z,2.53
2022-10-17T09:54:45.032Z,2.63
2022-10-17T09:57:13.621Z,2.45
2022-10-17T09:59:56.304Z,2.85
2022-10-17T10:02:24.633Z,2.47
2022-10-17T10:05:16.450Z,2.80
2022-10-17T10:08:00.078Z,2.40
2022-10-17T10:10:28.759Z,2.17
2022-10-17T10:13:15.204Z,2.72
2022-10-17T10:15:46.288Z,2.75
2022-10-17T10:18:24.991Z,3.03
2022-10-17T10:21:18.168Z,2.75
2022-10-17T10:24:03.433Z,3.20
2022-10-17T10:26:43.886Z,3.20
2022-10-17T10:29:22.789Z,4.75
2022-10-17T10:31:50.936Z,4.68
2022-10-17T10:34:25.826Z,2.92
2022-10-17T10:37:02.925Z,2.60
2022-10-17T10:39:42.143Z,2.30
2022-10-17T10:42:20.598Z,2.50
2022-10-17T10:44:49.975Z,2.53
2022-10-17T10:47:26.259Z,2.70
2022-10-17T10:50:18.531Z,2.60
2022-10-17T10:53:15.309Z,3.05
2022-10-17T10:55:56.560Z,2.88
2022-10-17T10:58:54.444Z,2.60
2022-10-17T11:01:24.097Z,2.53
2022-10-17T11:04:18.560Z,2.92
2022-10-17T11:06:47.795Z,2.80
2022-10-17T11:09:34.787Z,2.85
2022-10-17T11:12:18.146Z,2.10
2022-10-17T11:14:56.410Z,2.50
2022-10-17T11:17:38.662Z,2.40
2022-10-17T11:20:34.204Z,3.33
2022-10-17T11:23:14.397Z,2.20
2022-10-17T11:25:42.142Z,4.28
2022-10-17T11:28:14.759Z,2.75
2022-10-17T11:31:12.823Z,3.72
2022-10-17T11:34:00.004Z,2.83
2022-10-17T11:36:34.848Z,2.78
2022-10-17T11:39:16.042Z,3.00
2022-10-17T11:41:47.956Z,11.98
2022-10-17T11:44:24.405Z,4.68
2022-10-17T11:46:57.378Z,3.08
2022-10-17T11:49:35.437Z,3.35
2022-10-17T11:52:37.802Z,3.55
2022-10-17T11:55:22.566Z,3.30
2022-10-17T11:58:01.295Z,3.00
2022-10-17T12:00:39.317Z,3.08
2022-10-17T12:03:23.328Z,3.22
2022-10-17T12:06:04.341Z,3.40
2022-10-17T12:08:37.777Z,3.35
2022-10-17T12:11:18.095Z,2.80
2022-10-17T12:13:49.874Z,2.80
2022-10-17T12:16:19.750Z,3.28
2022-10-17T12:21:14.070Z,2.90
2022-10-17T12:23:41.254Z,3.53
2022-10-17T12:26:10.419Z,2.70
2022-10-17T12:28:40.169Z,2.35
2022-10-17T12:31:15.887Z,2.85
2022-10-17T12:34:03.072Z,2.90
2022-10-17T12:36:29.707Z,3.10
2022-10-17T12:39:02.346Z,2.70
2022-10-17T12:41:38.016Z,2.92
2022-10-17T12:44:13.896Z,2.35
2022-10-17T12:46:59.443Z,2.72
2022-10-17T12:49:56.490Z,2.88
2022-10-17T12:52:26.737Z,3.13
2022-10-17T12:57:59.382Z,2.60
2022-10-17T13:00:49.871Z,3.00
2022-10-17T13:03:30.649Z,2.63
2022-10-17T13:06:05.233Z,2.70
2022-10-17T13:08:33.486Z,2.83
2022-10-17T13:11:01.254Z,2.67
2022-10-17T13:13:50.424Z,3.20
2022-10-17T13:16:29.202Z,3.30
2022-10-17T13:18:55.933Z,2.70
2022-10-17T13:21:22.616Z,2.72
2022-10-17T13:23:51.587Z,2.60
2022-10-17T13:26:22.741Z,2.88
2022-10-17T13:29:03.619Z,2.63
2022-10-17T13:31:34.093Z,2.88
2022-10-17T13:34:06.449Z,2.97
2022-10-17T13:36:35.233Z,3.08
2022-10-17T13:39:12.041Z,2.35
2022-10-17T13:41:40.675Z,2.70
2022-10-17T13:44:34.269Z,2.95
2022-10-17T13:47:01.482Z,2.80
2022-10-17T13:49:34.293Z,2.50
2022-10-17T13:52:04.497Z,2.40
2022-10-17T13:54:42.944Z,2.80
2022-10-17T13:57:25.824Z,2.53
2022-10-17T13:59:56.516Z,2.60
2022-10-17T14:02:26.743Z,2.25
2022-10-17T14:05:19.535Z,2.80
2022-10-17T14:10:42.835Z,2.78
2022-10-17T14:13:25.361Z,2.10
2022-10-17T14:15:54.826Z,2.80
2022-10-17T14:18:36.450Z,2.85
2022-10-17T14:21:36.805Z,2.63
2022-10-17T14:24:11.730Z,2.50
2022-10-17T14:26:48.146Z,2.50
2022-10-17T14:29:24.201Z,2.40
2022-10-17T14:31:58.329Z,3.20
2022-10-17T14:34:30.466Z,2.30
2022-10-17T14:36:57.426Z,2.60
2022-10-17T14:39:26.250Z,2.35
2022-10-17T14:41:53.767Z,2.72
2022-10-17T14:44:24.186Z,2.50
2022-10-17T14:46:57.767Z,2.25
2022-10-17T14:49:42.537Z,2.40
2022-10-17T14:52:15.367Z,2.25
2022-10-17T14:54:47.227Z,2.15
2022-10-17T14:57:38.114Z,2.05
2022-10-17T15:00:06.766Z,2.25
2022-10-17T15:02:33.893Z,2.05
2022-10-17T15:05:02.639Z,2.40
2022-10-17T15:07:29.565Z,2.28
2022-10-17T15:09:59.234Z,2.05
2022-10-17T15:12:26.339Z,1.75
2022-10-17T15:14:53.812Z,2.20
2022-10-17T15:17:26.694Z,2.58
2022-10-17T15:19:53.925Z,2.15
2022-10-17T15:22:23.673Z,2.10
2022-10-17T15:24:50.586Z,2.85
2022-10-17T15:27:20.005Z,2.20
2022-10-17T15:29:47.605Z,1.75
2022-10-17T15:32:15.416Z,2.40
2022-10-17T15:34:42.657Z,2.53
2022-10-17T15:37:22.228Z,2.50
2022-10-17T15:39:54.283Z,2.20
2022-10-17T15:42:29.749Z,2.20
2022-10-17T15:44:57.465Z,2.17
2022-10-17T15:47:35.387Z,2.65
2022-10-17T15:50:02.926Z,2.20
2022-10-17T15:52:29.792Z,2.10
2022-10-17T15:55:02.414Z,1.77
2022-10-17T15:57:38.164Z,1.50
2022-10-17T16:00:08.233Z,2.30
2022-10-17T16:02:36.022Z,2.00
2022-10-17T16:05:09.594Z,2.33
2022-10-17T16:07:39.526Z,2.80
2022-10-17T16:10:10.246Z,2.00
2022-10-17T16:12:41.784Z,2.08
2022-10-17T16:15:28.705Z,2.20
2022-10-17T16:17:57.214Z,2.55
2022-10-17T16:20:25.037Z,2.25
2022-10-17T16:22:53.328Z,2.33
2022-10-17T16:25:25.999Z,2.65
2022-10-17T16:28:43.774Z,2.30
2022-10-17T16:36:02.889Z,3.10
2022-10-17T16:38:29.670Z,3.85
2022-10-17T16:40:57.354Z,3.75
2022-10-17T16:43:29.629Z,3.70
2022-10-17T16:45:56.250Z,3.65
2022-10-17T16:48:26.160Z,3.80
2022-10-17T16:50:56.175Z,3.85
2022-10-17T16:53:22.917Z,3.15
2022-10-17T16:56:03.151Z,3.58
2022-10-17T16:58:32.185Z,3.47
2022-10-17T17:01:04.670Z,3.58
2022-10-17T17:03:35.408Z,3.30
2022-10-17T17:06:02.233Z,5.00
2022-10-17T17:08:30.077Z,4.28
2022-10-17T17:11:00.534Z,4.05
2022-10-17T17:13:29.202Z,4.07
2022-10-17T17:16:07.996Z,5.45
2022-10-17T17:18:34.956Z,4.97
2022-10-17T17:21:04.240Z,10.55
2022-10-17T17:23:36.215Z,12.10
2022-10-17T17:26:06.871Z,10.60
2022-10-17T17:28:36.912Z,6.65
2022-10-17T17:33:33.912Z,5.07
2022-10-17T17:36:02.122Z,4.88
2022-10-17T17:38:30.311Z,5.57
2022-10-17T17:40:57.252Z,8.43
2022-10-17T17:43:24.527Z,8.82
2022-10-17T17:45:51.708Z,6.38
2022-10-17T17:48:18.611Z,4.75
2022-10-17T17:50:48.133Z,5.00
2022-10-17T17:53:19.404Z,4.30
2022-10-17T17:55:46.174Z,4.13
2022-10-17T17:58:13.566Z,3.80
2022-10-17T18:00:41.040Z,6.32
2022-10-17T18:03:14.883Z,5.72
2022-10-17T18:05:51.019Z,6.20
2022-10-17T18:08:18.014Z,6.30
2022-10-17T18:10:49.656Z,4.85
2022-10-17T18:13:16.997Z,6.82
2022-10-17T18:15:44.056Z,5.88
2022-10-17T18:18:10.797Z,6.90
2022-10-17T18:20:44.087Z,5.60
2022-10-17T18:23:15.338Z,4.93
2022-10-17T18:25:41.970Z,5.22
2022-10-17T18:28:09.142Z,5.30
2022-10-17T18:30:38.854Z,5.13
2022-10-17T18:33:05.624Z,5.13
2022-10-17T18:35:35.597Z,6.20
2022-10-17T18:40:33.985Z,6.60
2022-10-17T18:43:00.690Z,6.15
2022-10-17T18:45:27.571Z,6.97
2022-10-17T18:47:54.405Z,7.47
2022-10-17T18:50:22.313Z,6.97
2022-10-17T18:52:50.889Z,5.50
2022-10-17T18:55:20.402Z,5.38
2022-10-17T18:57:49.258Z,5.70
2022-10-17T19:00:17.480Z,8.40
2022-10-17T19:02:44.195Z,13.85
2022-10-17T19:05:10.798Z,14.45
2022-10-17T19:07:37.460Z,12.05
2022-10-17T19:10:04.412Z,9.75
2022-10-17T19:12:31.169Z,7.72
2022-10-17T19:15:00.445Z,6.03
2022-10-17T19:17:27.360Z,6.03
2022-10-17T19:19:56.686Z,4.63
2022-10-17T19:22:23.433Z,6.70
2022-10-17T19:24:50.150Z,7.50
2022-10-17T19:27:16.732Z,6.82
2022-10-17T19:29:44.072Z,5.97
2022-10-17T19:32:15.710Z,5.30
2022-10-17T19:34:44.946Z,5.95
2022-10-17T19:37:11.692Z,5.22
2022-10-17T19:39:38.414Z,6.30
2022-10-17T19:42:06.948Z,6.30
2022-10-17T19:44:34.723Z,6.50
2022-10-17T19:47:04.632Z,6.78
2022-10-17T19:49:31.307Z,5.82
2022-10-17T19:51:59.100Z,7.57
2022-10-17T19:54:25.956Z,6.07
2022-10-17T19:56:55.844Z,6.75
2022-10-17T19:59:26.238Z,6.53
2022-10-17T20:01:53.125Z,6.50
2022-10-17T20:04:24.113Z,6.45
2022-10-17T20:06:50.872Z,7.20
2022-10-17T20:09:17.637Z,6.53
2022-10-17T20:11:44.790Z,6.47
2022-10-17T20:14:11.685Z,4.95
2022-10-17T20:16:38.456Z,7.13
2022-10-17T20:19:12.175Z,6.25
2022-10-17T20:21:40.892Z,7.32
2022-10-17T20:24:12.546Z,7.47
2022-10-17T20:26:40.109Z,6.93
2022-10-17T20:29:13.208Z,8.00
2022-10-17T20:31:41.302Z,7.28
2022-10-17T20:34:09.788Z,7.78
2022-10-17T20:36:39.345Z,7.07
2022-10-17T20:39:11.140Z,8.35
2022-10-17T20:41:40.717Z,7.72
2022-10-17T20:44:10.674Z,7.00
2022-10-17T20:46:44.378Z,6.63
2022-10-17T20:49:19.832Z,7.55
2022-10-17T20:51:51.489Z,7.32
2022-10-17T20:54:22.412Z,7.53
2022-10-17T20:56:49.774Z,8.13
2022-10-17T20:59:18.035Z,9.30
2022-10-17T21:01:45.839Z,8.52
2022-10-17T21:07:00.757Z,6.93
2022-10-17T21:09:32.886Z,8.02
2022-10-17T21:14:28.707Z,7.35
2022-10-17T21:16:55.496Z,6.93
2022-10-17T21:19:22.173Z,7.97
2022-10-17T21:21:49.153Z,7.43
2022-10-17T21:24:18.191Z,8.48
2022-10-17T21:26:46.981Z,8.40
2022-10-17T21:29:14.243Z,8.10
2022-10-17T21:31:45.338Z,7.90
2022-10-17T21:34:18.491Z,6.63
2022-10-17T21:36:48.412Z,8.43
2022-10-17T21:39:17.849Z,7.97
2022-10-17T21:41:45.681Z,7.93
2022-10-17T21:44:17.477Z,7.72
2022-10-17T21:46:44.738Z,8.15
2022-10-17T21:49:13.340Z,7.65
2022-10-17T21:51:40.809Z,8.80
2022-10-17T21:54:08.083Z,7.40
2022-10-17T21:56:36.337Z,7.40
2022-10-17T21:59:06.321Z,9.10
2022-10-17T22:01:37.172Z,7.45
2022-10-17T22:04:18.882Z,6.88
2022-10-17T22:06:48.303Z,7.45
2022-10-17T22:09:25.086Z,9.85
2022-10-17T22:11:54.771Z,7.00
2022-10-17T22:14:24.197Z,8.80
2022-10-17T22:16:51.514Z,7.55
2022-10-17T22:19:24.889Z,7.68
2022-10-17T22:21:55.600Z,8.05
2022-10-17T22:24:23.519Z,9.77
2022-10-17T22:26:53.138Z,8.50
2022-10-17T22:29:20.111Z,9.93
2022-10-17T22:31:46.887Z,7.47
2022-10-17T22:34:15.149Z,8.68
2022-10-17T22:36:42.392Z,7.47
2022-10-17T22:39:11.573Z,8.90
2022-10-17T22:41:38.464Z,7.82
2022-10-17T22:44:05.998Z,8.30
2022-10-17T22:46:32.983Z,6.97
2022-10-17T22:48:59.759Z,7.30
2022-10-17T22:51:28.456Z,7.07
2022-10-17T22:53:55.167Z,12.15
2022-10-17T22:56:24.901Z,10.00
2022-10-17T22:58:51.804Z,8.48
2022-10-17T23:01:21.672Z,8.20
2022-10-17T23:03:49.187Z,8.65
2022-10-17T23:06:16.490Z,7.82
2022-10-17T23:08:45.885Z,8.02
2022-10-17T23:11:13.093Z,6.90
2022-10-17T23:13:41.028Z,7.65
2022-10-17T23:16:08.711Z,8.73
2022-10-17T23:18:35.399Z,8.30
2022-10-17T23:21:02.198Z,6.70
2022-10-17T23:23:28.953Z,7.65
2022-10-17T23:25:56.496Z,9.23
2022-10-17T23:28:23.325Z,7.25
2022-10-17T23:30:50.093Z,8.95
2022-10-17T23:33:17.341Z,6.63
2022-10-17T23:35:47.182Z,7.72
2022-10-17T23:38:14.184Z,8.07
2022-10-17T23:40:44.890Z,8.03
2022-10-17T23:43:14.933Z,7.30
2022-10-17T23:45:42.577Z,9.25
2022-10-17T23:48:11.754Z,6.95
2022-10-17T23:50:38.536Z,6.50
2022-10-17T23:53:05.218Z,7.55
2022-10-17T23:55:31.970Z,8.20
2022-10-17T23:57:58.707Z,7.53
